createdAt,value
2019-06-10T00:02:33.772Z,13.38
2019-06-10T00:05:41.567Z,13.30
2019-06-10T00:08:50.484Z,13.38
2019-06-10T00:11:56.328Z,13.34
2019-06-10T00:15:03.386Z,13.27
2019-06-10T00:18:34.414Z,13.22
2019-06-10T00:21:21.581Z,13.27
2019-06-10T00:24:27.435Z,13.27
2019-06-10T00:27:33.843Z,13.31
2019-06-10T00:30:41.159Z,13.34
2019-06-10T00:33:47.877Z,13.40
2019-06-10T00:36:54.307Z,13.30
2019-06-10T00:40:03.580Z,13.15
2019-06-10T00:43:11.595Z,13.15
2019-06-10T00:46:17.202Z,13.15
2019-06-10T00:49:23.627Z,13.26
2019-06-10T00:52:30.856Z,13.27
2019-06-10T00:55:37.611Z,13.26
2019-06-10T00:58:44.139Z,13.22
2019-06-10T01:01:50.993Z,13.11
2019-06-10T01:04:57.500Z,13.16
2019-06-10T01:08:04.574Z,13.11
2019-06-10T01:11:20.242Z,13.28
2019-06-10T01:14:21.472Z,13.28
2019-06-10T01:17:27.560Z,13.13
2019-06-10T01:20:33.918Z,13.09
2019-06-10T01:23:41.632Z,13.13
2019-06-10T01:26:50.438Z,13.26
2019-06-10T01:29:56.222Z,13.12
2019-06-10T01:33:02.590Z,13.10
2019-06-10T01:36:12.570Z,13.16
2019-06-10T01:39:18.060Z,13.14
2019-06-10T01:42:24.828Z,13.22
2019-06-10T01:45:31.351Z,13.23
2019-06-10T01:48:44.112Z,13.24
2019-06-10T01:51:45.954Z,13.26
2019-06-10T01:54:52.402Z,13.21
2019-06-10T01:58:00.867Z,13.24
2019-06-10T02:01:23.156Z,13.20
2019-06-10T02:04:27.577Z,13.31
2019-06-10T02:07:34.031Z,13.24
2019-06-10T02:10:41.558Z,13.33
2019-06-10T02:13:48.294Z,13.29
2019-06-10T02:16:55.100Z,13.29
2019-06-10T02:20:01.597Z,13.32
2019-06-10T02:23:08.076Z,13.38
2019-06-10T02:26:15.301Z,13.38
2019-06-10T02:29:23.583Z,13.45
2019-06-10T02:32:36.241Z,13.40
2019-06-10T02:35:44.314Z,13.42
2019-06-10T02:38:46.268Z,13.37
2019-06-10T02:41:55.161Z,13.36
2019-06-10T02:45:03.765Z,13.44
2019-06-10T02:48:12.890Z,13.35
2019-06-10T02:51:20.430Z,13.38
2019-06-10T02:54:31.380Z,13.34
2019-06-10T02:57:39.635Z,13.32
2019-06-10T03:00:47.996Z,13.31
2019-06-10T03:03:53.949Z,13.43
2019-06-10T03:06:59.035Z,13.32
2019-06-10T03:10:06.068Z,13.39
2019-06-10T03:13:12.702Z,13.33
2019-06-10T03:16:25.835Z,13.32
2019-06-10T03:19:44.123Z,13.35
2019-06-10T03:22:42.320Z,13.34
2019-06-10T03:25:58.923Z,13.39
2019-06-10T03:29:05.405Z,13.35
2019-06-10T03:32:15.190Z,13.39
2019-06-10T03:35:19.790Z,13.39
2019-06-10T03:38:28.107Z,13.43
2019-06-10T03:41:34.382Z,13.44
2019-06-10T03:44:42.968Z,13.47
2019-06-10T03:47:49.099Z,13.51
2019-06-10T03:50:55.444Z,13.60
2019-06-10T03:54:02.519Z,13.59
2019-06-10T03:57:09.078Z,13.62
2019-06-10T04:00:17.351Z,13.66
2019-06-10T04:03:27.749Z,13.71
2019-06-10T04:06:33.873Z,13.73
2019-06-10T04:09:42.381Z,13.81
2019-06-10T04:12:48.486Z,13.84
2019-06-10T04:15:57.316Z,13.91
2019-06-10T04:19:04.114Z,13.92
2019-06-10T04:22:12.933Z,13.95
2019-06-10T04:25:19.584Z,13.95
2019-06-10T04:28:27.283Z,13.98
2019-06-10T04:31:33.842Z,13.99
2019-06-10T04:34:42.718Z,14.06
2019-06-10T04:37:48.467Z,14.04
2019-06-10T04:40:54.808Z,14.10
2019-06-10T04:44:02.688Z,14.13
2019-06-10T04:47:09.265Z,14.15
2019-06-10T04:50:26.102Z,14.28
2019-06-10T04:53:26.458Z,14.33
2019-06-10T04:56:33.607Z,14.33
2019-06-10T04:59:42.709Z,14.35
2019-06-10T05:02:48.241Z,14.43
2019-06-10T05:05:54.938Z,14.49
2019-06-10T05:09:01.217Z,14.54
2019-06-10T05:12:08.249Z,14.55
2019-06-10T05:15:14.916Z,14.62
2019-06-10T05:18:23.839Z,14.66
2019-06-10T05:21:33.544Z,14.78
2019-06-10T05:24:39.031Z,14.81
2019-06-10T05:27:45.439Z,14.86
2019-06-10T05:30:53.194Z,14.81
2019-06-10T05:33:59.728Z,14.82
2019-06-10T05:37:06.160Z,14.95
2019-06-10T05:40:13.130Z,14.94
2019-06-10T05:43:21.956Z,15.00
2019-06-10T05:46:28.709Z,15.03
2019-06-10T05:49:36.160Z,15.05
2019-06-10T05:52:43.578Z,15.03
2019-06-10T05:55:52.828Z,15.21
2019-06-10T05:59:01.494Z,15.21
2019-06-10T06:02:06.242Z,15.23
2019-06-10T06:05:12.954Z,15.29
2019-06-10T06:08:19.504Z,15.34
2019-06-10T06:11:27.665Z,15.50
2019-06-10T06:14:35.748Z,15.41
2019-06-10T06:17:43.141Z,15.44
2019-06-10T06:20:52.588Z,15.49
2019-06-10T06:23:59.213Z,15.50
2019-06-10T06:27:05.743Z,15.50
2019-06-10T06:30:18.744Z,15.58
2019-06-10T06:33:23.431Z,15.63
2019-06-10T06:36:31.257Z,15.83
2019-06-10T06:39:38.353Z,15.75
2019-06-10T06:42:44.805Z,15.76
2019-06-10T06:45:53.152Z,15.83
2019-06-10T06:48:59.206Z,15.95
2019-06-10T06:52:05.711Z,16.03
2019-06-10T06:55:13.944Z,16.02
2019-06-10T06:58:20.400Z,16.10
2019-06-10T07:01:26.860Z,16.16
2019-06-10T07:04:37.118Z,16.28
2019-06-10T07:07:44.227Z,16.25
2019-06-10T07:10:52.262Z,16.32
2019-06-10T07:14:03.680Z,16.36
2019-06-10T07:17:09.156Z,16.37
2019-06-10T07:20:15.831Z,16.58
2019-06-10T07:23:22.594Z,16.65
2019-06-10T07:26:29.291Z,16.54
2019-06-10T07:29:38.559Z,16.72
2019-06-10T07:32:47.120Z,16.72
2019-06-10T07:35:53.478Z,16.85
2019-06-10T07:39:00.259Z,17.07
2019-06-10T07:42:06.888Z,16.98
2019-06-10T07:45:13.478Z,17.21
2019-06-10T07:48:22.165Z,17.41
2019-06-10T07:51:28.208Z,17.15
2019-06-10T07:54:35.932Z,17.13
2019-06-10T07:57:45.267Z,17.39
2019-06-10T08:00:53.439Z,17.63
2019-06-10T08:03:59.505Z,17.63
2019-06-10T08:07:06.091Z,17.61
2019-06-10T08:10:14.358Z,17.76
2019-06-10T08:13:22.619Z,17.94
2019-06-10T08:16:29.202Z,17.94
2019-06-10T08:19:39.800Z,17.91
2019-06-10T08:22:50.774Z,17.76
2019-06-10T08:25:56.866Z,17.76
2019-06-10T08:29:04.165Z,17.73
2019-06-10T08:32:08.690Z,17.63
2019-06-10T08:35:15.163Z,17.86
2019-06-10T08:38:23.089Z,18.10
2019-06-10T08:41:32.127Z,18.26
2019-06-10T08:44:38.812Z,18.55
2019-06-10T08:47:47.712Z,18.52
2019-06-10T08:50:54.555Z,18.71
2019-06-10T08:54:02.386Z,18.31
2019-06-10T08:57:12.471Z,18.36
2019-06-10T09:00:22.690Z,18.20
2019-06-10T09:03:27.535Z,18.35
2019-06-10T09:06:34.109Z,18.24
2019-06-10T09:09:41.333Z,18.57
2019-06-10T09:12:51.337Z,18.64
2019-06-10T09:16:10.864Z,18.98
2019-06-10T09:19:05.590Z,18.93
2019-06-10T09:22:12.624Z,19.03
2019-06-10T09:25:19.271Z,19.17
2019-06-10T09:28:25.761Z,19.25
2019-06-10T09:31:33.380Z,19.53
2019-06-10T09:34:43.086Z,19.30
2019-06-10T09:37:51.584Z,19.15
2019-06-10T09:41:01.624Z,19.04
2019-06-10T09:44:05.450Z,18.97
2019-06-10T09:47:14.276Z,19.56
2019-06-10T09:50:26.994Z,19.79
2019-06-10T09:53:42.432Z,19.03
2019-06-10T09:56:45.097Z,19.10
2019-06-10T09:59:55.739Z,19.26
2019-06-10T10:02:58.256Z,19.07
2019-06-10T10:06:14.382Z,19.07
2019-06-10T10:09:12.890Z,19.21
2019-06-10T10:12:19.471Z,19.99
2019-06-10T10:15:30.767Z,19.78
2019-06-10T10:18:34.452Z,19.72
2019-06-10T10:21:45.631Z,19.94
2019-06-10T10:24:49.389Z,19.73
2019-06-10T10:27:57.581Z,20.16
2019-06-10T10:31:04.751Z,20.61
2019-06-10T10:34:13.477Z,20.56
2019-06-10T10:37:19.517Z,20.62
2019-06-10T10:40:26.116Z,20.94
2019-06-10T10:43:36.556Z,21.17
2019-06-10T10:46:40.791Z,20.74
2019-06-10T10:49:47.260Z,20.42
2019-06-10T10:52:53.987Z,21.04
2019-06-10T10:56:02.296Z,20.93
2019-06-10T10:59:08.610Z,21.04
2019-06-10T11:02:15.254Z,21.23
2019-06-10T11:05:33.578Z,21.55
2019-06-10T11:08:42.519Z,21.97
2019-06-10T11:11:49.061Z,22.15
2019-06-10T11:15:00.447Z,21.95
2019-06-10T11:18:04.340Z,22.34
2019-06-10T11:21:13.266Z,22.34
2019-06-10T11:24:35.501Z,22.21
2019-06-10T11:27:28.486Z,22.35
2019-06-10T11:30:34.993Z,22.81
2019-06-10T11:33:43.441Z,23.36
2019-06-10T11:36:53.530Z,21.86
2019-06-10T11:39:58.685Z,23.13
2019-06-10T11:43:05.304Z,22.70
2019-06-10T11:46:13.755Z,23.68
2019-06-10T11:49:19.994Z,23.57
2019-06-10T11:52:26.516Z,23.42
2019-06-10T11:55:34.200Z,23.41
2019-06-10T11:58:42.647Z,23.48
2019-06-10T12:01:50.294Z,23.40
2019-06-10T12:04:58.964Z,23.45
2019-06-10T12:08:05.438Z,23.13
2019-06-10T12:11:12.695Z,24.34
2019-06-10T12:14:19.438Z,24.22
2019-06-10T12:17:41.755Z,24.43
2019-06-10T12:20:35.039Z,23.55
2019-06-10T12:23:44.141Z,24.23
2019-06-10T12:26:53.482Z,24.03
2019-06-10T12:30:00.257Z,23.49
2019-06-10T12:33:07.170Z,24.69
2019-06-10T12:36:13.572Z,25.41
2019-06-10T12:39:22.732Z,24.39
2019-06-10T12:42:28.299Z,24.17
2019-06-10T12:45:34.904Z,26.00
2019-06-10T12:48:42.649Z,23.53
2019-06-10T12:51:49.604Z,24.29
2019-06-10T12:54:57.482Z,24.08
2019-06-10T12:58:05.997Z,24.08
2019-06-10T13:01:12.215Z,24.39
2019-06-10T13:04:18.931Z,24.39
2019-06-10T13:07:25.496Z,24.38
2019-06-10T13:10:42.990Z,23.80
2019-06-10T13:13:49.591Z,24.36
2019-06-10T13:16:56.114Z,24.17
2019-06-10T13:20:05.947Z,22.64
2019-06-10T13:23:20.267Z,22.26
2019-06-10T13:26:19.383Z,22.64
2019-06-10T13:29:25.879Z,23.32
2019-06-10T13:32:32.558Z,23.00
2019-06-10T13:35:39.302Z,23.10
2019-06-10T13:38:53.264Z,23.56
2019-06-10T13:42:05.029Z,23.21
2019-06-10T13:45:14.704Z,23.46
2019-06-10T13:48:25.653Z,23.34
2019-06-10T13:51:32.350Z,23.34
2019-06-10T13:54:39.185Z,23.15
2019-06-10T13:57:46.623Z,23.45
2019-06-10T14:00:54.121Z,23.00
2019-06-10T14:04:09.895Z,22.42
2019-06-10T14:07:12.665Z,23.21
2019-06-10T14:10:19.256Z,23.28
2019-06-10T14:13:28.518Z,24.15
2019-06-10T14:16:34.938Z,23.88
2019-06-10T14:19:43.256Z,24.01
2019-06-10T14:22:53.179Z,23.68
2019-06-10T14:26:03.237Z,23.90
2019-06-10T14:29:15.620Z,23.28
2019-06-10T14:32:22.392Z,23.72
2019-06-10T14:35:29.101Z,23.71
2019-06-10T14:38:35.829Z,23.57
2019-06-10T14:41:43.040Z,23.76
2019-06-10T14:44:49.720Z,23.40
2019-06-10T14:47:58.688Z,23.48
2019-06-10T14:51:05.370Z,23.89
2019-06-10T14:54:14.636Z,23.84
2019-06-10T14:57:22.701Z,23.60
2019-06-10T15:00:28.657Z,23.72
2019-06-10T15:03:35.163Z,23.94
2019-06-10T15:06:43.199Z,23.76
2019-06-10T15:09:52.493Z,23.39
2019-06-10T15:12:58.174Z,23.83
2019-06-10T15:16:04.985Z,23.56
2019-06-10T15:19:18.171Z,23.76
2019-06-10T15:22:20.032Z,23.60
2019-06-10T15:25:28.410Z,23.37
2019-06-10T15:28:34.909Z,23.29
2019-06-10T15:31:42.862Z,23.12
2019-06-10T15:34:49.462Z,22.95
2019-06-10T15:37:55.968Z,23.09
2019-06-10T15:41:02.322Z,22.68
2019-06-10T15:44:09.672Z,23.20
2019-06-10T15:47:19.412Z,23.10
2019-06-10T15:50:27.334Z,22.77
2019-06-10T15:53:33.035Z,22.81
2019-06-10T15:56:49.379Z,22.72
2019-06-10T15:59:47.650Z,22.73
2019-06-10T16:02:54.306Z,22.68
2019-06-10T16:06:02.917Z,22.50
2019-06-10T16:09:12.155Z,22.36
2019-06-10T16:12:19.958Z,22.36
2019-06-10T16:15:26.802Z,22.29
2019-06-10T16:18:33.338Z,22.15
2019-06-10T16:21:39.808Z,22.13
2019-06-10T16:24:46.381Z,22.06
2019-06-10T16:27:54.408Z,21.67
2019-06-10T16:31:02.775Z,21.67
2019-06-10T16:34:09.675Z,21.68
2019-06-10T16:37:17.045Z,21.80
2019-06-10T16:40:26.742Z,21.46
2019-06-10T16:43:33.678Z,21.39
2019-06-10T16:46:42.656Z,21.53
2019-06-10T16:49:48.680Z,21.49
2019-06-10T16:52:55.252Z,21.15
2019-06-10T16:56:03.327Z,21.03
2019-06-10T16:59:12.202Z,20.83
2019-06-10T17:02:19.209Z,21.08
2019-06-10T17:05:27.595Z,21.38
2019-06-10T17:08:34.100Z,21.14
2019-06-10T17:11:42.700Z,21.04
2019-06-10T17:14:49.291Z,21.11
2019-06-10T17:17:55.982Z,20.87
2019-06-10T17:21:03.685Z,20.87
2019-06-10T17:24:12.718Z,20.83
2019-06-10T17:27:22.282Z,20.80
2019-06-10T17:30:28.485Z,20.70
2019-06-10T17:33:36.116Z,20.62
2019-06-10T17:36:42.971Z,20.49
2019-06-10T17:39:49.490Z,20.38
2019-06-10T17:42:56.015Z,20.17
2019-06-10T17:46:03.349Z,20.08
2019-06-10T17:49:10.074Z,20.08
2019-06-10T17:52:16.460Z,20.10
2019-06-10T17:55:25.971Z,19.99
2019-06-10T17:58:43.335Z,20.03
2019-06-10T18:01:40.436Z,19.92
2019-06-10T18:04:47.050Z,19.98
2019-06-10T18:07:53.700Z,19.96
2019-06-10T18:11:00.134Z,19.84
2019-06-10T18:14:06.796Z,19.79
2019-06-10T18:17:13.235Z,19.70
2019-06-10T18:20:19.705Z,19.74
2019-06-10T18:23:26.514Z,19.64
2019-06-10T18:26:36.251Z,19.81
2019-06-10T18:29:42.624Z,19.71
2019-06-10T18:32:49.277Z,19.75
2019-06-10T18:35:55.817Z,19.62
2019-06-10T18:39:03.692Z,19.60
2019-06-10T18:42:12.642Z,19.52
2019-06-10T18:45:22.233Z,19.33
2019-06-10T18:48:29.016Z,19.27
2019-06-10T18:51:37.362Z,19.23
2019-06-10T18:54:44.635Z,19.41
2019-06-10T18:57:52.994Z,19.26
2019-06-10T19:01:05.267Z,19.24
2019-06-10T19:04:07.821Z,19.13
2019-06-10T19:07:14.298Z,19.14
2019-06-10T19:10:23.071Z,19.06
2019-06-10T19:13:29.562Z,19.06
2019-06-10T19:16:37.324Z,18.99
2019-06-10T19:19:44.326Z,19.07
2019-06-10T19:22:52.691Z,18.84
2019-06-10T19:25:59.253Z,18.80
2019-06-10T19:29:06.628Z,18.81
2019-06-10T19:32:13.183Z,18.63
2019-06-10T19:35:22.221Z,18.52
2019-06-10T19:38:28.070Z,18.43
2019-06-10T19:41:37.605Z,18.48
2019-06-10T19:44:45.593Z,18.41
2019-06-10T19:47:52.258Z,18.20
2019-06-10T19:50:58.857Z,18.17
2019-06-10T19:54:05.234Z,18.16
2019-06-10T19:57:12.871Z,18.17
2019-06-10T20:00:22.153Z,18.00
2019-06-10T20:03:29.280Z,18.02
2019-06-10T20:06:35.920Z,17.78
2019-06-10T20:09:46.113Z,17.75
2019-06-10T20:12:53.722Z,17.81
2019-06-10T20:16:03.645Z,17.60
2019-06-10T20:19:09.928Z,17.71
2019-06-10T20:22:16.487Z,17.67
2019-06-10T20:25:23.130Z,17.53
2019-06-10T20:28:32.176Z,17.41
2019-06-10T20:31:40.047Z,17.31
2019-06-10T20:34:49.632Z,17.24
2019-06-10T20:37:56.820Z,17.23
2019-06-10T20:41:03.543Z,17.28
2019-06-10T20:44:10.240Z,17.20
2019-06-10T20:47:16.657Z,17.15
2019-06-10T20:50:25.004Z,17.16
2019-06-10T20:53:33.549Z,17.07
2019-06-10T20:56:45.543Z,17.01
2019-06-10T20:59:51.379Z,16.82
2019-06-10T21:03:03.254Z,16.71
2019-06-10T21:06:13.036Z,16.63
2019-06-10T21:09:19.120Z,16.73
2019-06-10T21:12:25.620Z,16.61
2019-06-10T21:15:34.618Z,16.56
2019-06-10T21:18:45.251Z,16.44
2019-06-10T21:21:50.347Z,16.57
2019-06-10T21:24:57.368Z,16.48
2019-06-10T21:28:05.488Z,16.32
2019-06-10T21:31:13.417Z,16.22
2019-06-10T21:34:23.961Z,16.00
2019-06-10T21:37:32.037Z,16.14
2019-06-10T21:40:38.534Z,15.96
2019-06-10T21:43:49.387Z,16.04
2019-06-10T21:46:53.757Z,16.07
2019-06-10T21:50:00.310Z,16.22
2019-06-10T21:53:08.351Z,16.16
2019-06-10T21:56:14.918Z,16.09
2019-06-10T21:59:28.704Z,16.09
2019-06-10T22:02:38.477Z,15.81
2019-06-10T22:05:47.508Z,15.81
2019-06-10T22:08:56.712Z,15.94
2019-06-10T22:12:03.283Z,15.91
2019-06-10T22:15:12.289Z,15.78
2019-06-10T22:18:19.991Z,15.66
2019-06-10T22:21:27.348Z,15.60
2019-06-10T22:24:33.739Z,15.46
2019-06-10T22:27:47.860Z,15.42
2019-06-10T22:31:14.593Z,15.39
2019-06-10T22:34:07.273Z,15.44
2019-06-10T22:37:13.690Z,15.30
2019-06-10T22:40:22.383Z,15.37
2019-06-10T22:43:33.194Z,15.13
2019-06-10T22:46:43.511Z,15.01
2019-06-10T22:49:54.442Z,15.01
2019-06-10T22:52:59.735Z,14.90
2019-06-10T22:56:06.234Z,15.16
2019-06-10T22:59:13.249Z,15.01
2019-06-10T23:02:22.798Z,14.79
2019-06-10T23:05:28.990Z,14.68
2019-06-10T23:08:35.656Z,14.82
2019-06-10T23:11:42.483Z,14.69
2019-06-10T23:14:49.110Z,14.61
2019-06-10T23:17:57.098Z,14.68
2019-06-10T23:21:04.540Z,14.70
2019-06-10T23:24:13.409Z,14.43
2019-06-10T23:27:19.312Z,14.41
2019-06-10T23:30:25.722Z,14.31
2019-06-10T23:33:32.490Z,14.11
2019-06-10T23:36:38.994Z,14.11
2019-06-10T23:39:45.351Z,14.08
2019-06-10T23:42:53.116Z,14.40
2019-06-10T23:45:59.715Z,14.41
2019-06-10T23:49:06.233Z,14.21
2019-06-10T23:52:12.919Z,14.15
2019-06-10T23:55:19.284Z,14.08
2019-06-10T23:58:25.753Z,14.08
